EKSN

Details ICAO EKSN (CNL)
Name Sindal
Region Denmark / Faroe Islands
Timezone Europe/Copenhagen (UTC+1.0)
Plans Departing 13
Arriving 26
Stats Elevation 91 ft / 28 m (AMSL)
Location 57.503500° 10.229400°
Runways 1
Magnetic Variation 3.099° E
Sunrise 2018-12-19 07:59:36 UTC / 2018-12-19 08:59:36 Local
Sunset 2018-12-19 14:35:10 UTC / 2018-12-19 15:35:10 Local
Advertisement - Login to hide

Runways

ID Width Length Bearing (true/mag) Surface Threshold Overrun Markings Lighting
09 98 ft / 30 m 3,921 ft / 1,195 m 86.26° / 83.16° ASPHALT 0 ft / 0 m 0 ft / 0 m APP CENTERLINE EDGE THRESHOLD SALS REIL-OMNI
27 98 ft / 30 m 3,921 ft / 1,195 m 266.27° / 263.17° ASPHALT 0 ft / 0 m 0 ft / 0 m PREC-APP CENTERLINE EDGE THRESHOLD ALSF-I REIL-OMNI

Approach Navaids

Runway Type Ident Frequency Range Bearing (true/mag) Slope Elevation
27 LOC-ILS SDL 110.15 MHz 18 nm / 33 km 266.25° / 263.15° - 92 ft / 28 m (AMSL)
27 GS SDL 110.15 MHz 10 nm / 19 km 266.53° / 263.43° 3.00° 92 ft / 28 m (AMSL)
27 DME SDL 110.15 MHz 18 nm / 33 km - - 92 ft / 28 m (AMSL)

Map

Weather


0- 5 10 15 20 25 30 35+ Temperature / °C

Clouds and Precipitation
Forecast for 2018-12-19 06:00 UTC. Updated 5 hours ago

Ground ~20,000 ft ~40,000 ft Winds

METAR

EKSN 190850Z 13018G29KT 9999 SCT013 BKN018 05/03 Q1014

TAF

Not found

Frequencies

Tower 118.75 MHz AFIS
Approach 123.97 MHz AALBORG APP
Warning: Do not use this data for real-world aviation or navigation. No guarantee of current accuracy is given.